sensor_id;sensor_type;location;lat;lon;timestamp;P1;P2;P0
71858;PMS5003;59713;50.866;4.324;2023-04-25T00:00:46;7;5;
71858;PMS5003;59713;50.866;4.324;2023-04-25T00:01:46;10;7;
71858;PMS5003;59713;50.866;4.324;2023-04-25T00:02:46;10;7;
71858;PMS5003;59713;50.866;4.324;2023-04-25T00:03:46;10;7;
71858;PMS5003;59713;50.866;4.324;2023-04-25T00:04:46;10;7;
71858;PMS5003;59713;50.866;4.324;2023-04-25T00:05:46;10;7;
71858;PMS5003;59713;50.866;4.324;2023-04-25T00:06:46;10;7;
71858;PMS5003;59713;50.866;4.324;2023-04-25T00:06:46;10;7;
71858;PMS5003;59713;50.866;4.324;2023-04-25T00:07:46;7;5;
71858;PMS5003;59713;50.866;4.324;2023-04-25T00:08:46;7;5;
71858;PMS5003;59713;50.866;4.324;2023-04-25T00:09:46;7;5;
71858;PMS5003;59713;50.866;4.324;2023-04-25T00:10:46;4;4;
71858;PMS5003;59713;50.866;4.324;2023-04-25T00:11:46;4;4;
71858;PMS5003;59713;50.866;4.324;2023-04-25T00:12:46;4;4;
71858;PMS5003;59713;50.866;4.324;2023-04-25T00:13:46;9;5;
71858;PMS5003;59713;50.866;4.324;2023-04-25T00:14:46;9;5;
71858;PMS5003;59713;50.866;4.324;2023-04-25T00:15:46;9;5;
71858;PMS5003;59713;50.866;4.324;2023-04-25T00:16:46;4;4;
71858;PMS5003;59713;50.866;4.324;2023-04-25T00:16:46;4;4;
71858;PMS5003;59713;50.866;4.324;2023-04-25T00:17:46;4;4;
71858;PMS5003;59713;50.866;4.324;2023-04-25T00:18:46;4;4;
71858;PMS5003;59713;50.866;4.324;2023-04-25T00:19:46;8;5;
71858;PMS5003;59713;50.866;4.324;2023-04-25T00:20:46;8;5;
71858;PMS5003;59713;50.866;4.324;2023-04-25T00:21:46;8;5;
71858;PMS5003;59713;50.866;4.324;2023-04-25T00:22:46;9;5;
71858;PMS5003;59713;50.866;4.324;2023-04-25T00:23:46;9;5;
71858;PMS5003;59713;50.866;4.324;2023-04-25T00:24:46;9;5;
71858;PMS5003;59713;50.866;4.324;2023-04-25T00:25:47;6;6;
71858;PMS5003;59713;50.866;4.324;2023-04-25T00:25:47;6;6;
71858;PMS5003;59713;50.866;4.324;2023-04-25T00:26:46;6;6;
71858;PMS5003;59713;50.866;4.324;2023-04-25T00:27:46;6;6;
71858;PMS5003;59713;50.866;4.324;2023-04-25T00:28:46;7;5;
71858;PMS5003;59713;50.866;4.324;2023-04-25T00:29:46;7;5;
71858;PMS5003;59713;50.866;4.324;2023-04-25T00:30:46;7;5;
71858;PMS5003;59713;50.866;4.324;2023-04-25T00:31:46;11;5;
71858;PMS5003;59713;50.866;4.324;2023-04-25T00:32:46;11;5;
71858;PMS5003;59713;50.866;4.324;2023-04-25T00:33:47;11;5;
71858;PMS5003;59713;50.866;4.324;2023-04-25T00:34:46;8;4;
71858;PMS5003;59713;50.866;4.324;2023-04-25T00:35:46;8;4;
71858;PMS5003;59713;50.866;4.324;2023-04-25T00:35:46;8;4;
71858;PMS5003;59713;50.866;4.324;2023-04-25T00:36:46;8;4;
71858;PMS5003;59713;50.866;4.324;2023-04-25T00:37:46;10;5;
71858;PMS5003;59713;50.866;4.324;2023-04-25T00:38:46;10;5;
71858;PMS5003;59713;50.866;4.324;2023-04-25T00:39:46;10;5;
71858;PMS5003;59713;50.866;4.324;2023-04-25T00:40:46;6;5;
71858;PMS5003;59713;50.866;4.324;2023-04-25T00:41:46;6;5;
71858;PMS5003;59713;50.866;4.324;2023-04-25T00:42:46;6;5;
71858;PMS5003;59713;50.866;4.324;2023-04-25T00:43:46;5;5;
71858;PMS5003;59713;50.866;4.324;2023-04-25T00:44:46;5;5;
71858;PMS5003;59713;50.866;4.324;2023-04-25T00:45:46;5;5;
71858;PMS5003;59713;50.866;4.324;2023-04-25T00:45:47;5;5;
71858;PMS5003;59713;50.866;4.324;2023-04-25T00:46:46;4;4;
71858;PMS5003;59713;50.866;4.324;2023-04-25T00:47:46;4;4;
71858;PMS5003;59713;50.866;4.324;2023-04-25T00:48:46;4;4;
71858;PMS5003;59713;50.866;4.324;2023-04-25T00:49:46;9;6;
71858;PMS5003;59713;50.866;4.324;2023-04-25T00:50:48;9;6;
71858;PMS5003;59713;50.866;4.324;2023-04-25T00:51:46;9;6;
71858;PMS5003;59713;50.866;4.324;2023-04-25T00:52:46;9;9;
71858;PMS5003;59713;50.866;4.324;2023-04-25T00:53:46;9;9;
71858;PMS5003;59713;50.866;4.324;2023-04-25T00:54:46;9;9;
71858;PMS5003;59713;50.866;4.324;2023-04-25T00:54:46;9;9;
71858;PMS5003;59713;50.866;4.324;2023-04-25T00:55:46;7;7;
71858;PMS5003;59713;50.866;4.324;2023-04-25T00:56:46;7;7;
71858;PMS5003;59713;50.866;4.324;2023-04-25T00:57:46;7;7;
71858;PMS5003;59713;50.866;4.324;2023-04-25T00:58:46;7;4;
71858;PMS5003;59713;50.866;4.324;2023-04-25T00:59:46;7;4;
71858;PMS5003;59713;50.866;4.324;2023-04-25T01:00:47;7;4;
71858;PMS5003;59713;50.866;4.324;2023-04-25T01:01:46;10;7;
71858;PMS5003;59713;50.866;4.324;2023-04-25T01:02:46;10;7;
71858;PMS5003;59713;50.866;4.324;2023-04-25T01:03:46;10;7;
71858;PMS5003;59713;50.866;4.324;2023-04-25T01:03:46;10;7;
71858;PMS5003;59713;50.866;4.324;2023-04-25T01:04:47;4;4;
71858;PMS5003;59713;50.866;4.324;2023-04-25T01:05:46;4;4;
71858;PMS5003;59713;50.866;4.324;2023-04-25T01:06:46;4;4;
71858;PMS5003;59713;50.866;4.324;2023-04-25T01:07:46;9;6;
71858;PMS5003;59713;50.866;4.324;2023-04-25T01:08:47;9;6;
71858;PMS5003;59713;50.866;4.324;2023-04-25T01:09:46;9;6;
71858;PMS5003;59713;50.866;4.324;2023-04-25T01:10:46;7;5;
71858;PMS5003;59713;50.866;4.324;2023-04-25T01:11:46;7;5;
71858;PMS5003;59713;50.866;4.324;2023-04-25T01:12:46;7;5;
71858;PMS5003;59713;50.866;4.324;2023-04-25T01:12:46;7;5;
71858;PMS5003;59713;50.866;4.324;2023-04-25T01:13:46;6;4;
71858;PMS5003;59713;50.866;4.324;2023-04-25T01:14:46;6;4;
71858;PMS5003;59713;50.866;4.324;2023-04-25T01:15:46;6;4;
71858;PMS5003;59713;50.866;4.324;2023-04-25T01:16:46;9;6;
71858;PMS5003;59713;50.866;4.324;2023-04-25T01:17:46;9;6;
71858;PMS5003;59713;50.866;4.324;2023-04-25T01:18:46;9;6;
71858;PMS5003;59713;50.866;4.324;2023-04-25T01:19:46;7;5;
71858;PMS5003;59713;50.866;4.324;2023-04-25T01:20:46;7;5;
71858;PMS5003;59713;50.866;4.324;2023-04-25T01:21:46;7;5;
71858;PMS5003;59713;50.866;4.324;2023-04-25T01:22:46;9;7;
71858;PMS5003;59713;50.866;4.324;2023-04-25T01:22:46;9;7;
71858;PMS5003;59713;50.866;4.324;2023-04-25T01:23:46;9;7;
71858;PMS5003;59713;50.866;4.324;2023-04-25T01:24:46;9;7;
71858;PMS5003;59713;50.866;4.324;2023-04-25T01:25:46;7;6;
71858;PMS5003;59713;50.866;4.324;2023-04-25T01:26:46;7;6;
71858;PMS5003;59713;50.866;4.324;2023-04-25T01:27:46;7;6;
71858;PMS5003;59713;50.866;4.324;2023-04-25T01:28:46;10;7;
71858;PMS5003;59713;50.866;4.324;2023-04-25T01:29:46;10;7;
71858;PMS5003;59713;50.866;4.324;2023-04-25T01:30:46;10;7;
71858;PMS5003;59713;50.866;4.324;2023-04-25T01:31:46;6;6;
71858;PMS5003;59713;50.866;4.324;2023-04-25T01:31:46;6;6;
71858;PMS5003;59713;50.866;4.324;2023-04-25T01:32:46;6;6;
71858;PMS5003;59713;50.866;4.324;2023-04-25T01:33:47;6;6;
71858;PMS5003;59713;50.866;4.324;2023-04-25T01:34:46;17;9;
71858;PMS5003;59713;50.866;4.324;2023-04-25T01:35:46;17;9;
71858;PMS5003;59713;50.866;4.324;2023-04-25T01:36:47;17;9;
71858;PMS5003;59713;50.866;4.324;2023-04-25T01:37:46;10;7;
71858;PMS5003;59713;50.866;4.324;2023-04-25T01:38:46;10;7;
71858;PMS5003;59713;50.866;4.324;2023-04-25T01:39:46;10;7;
71858;PMS5003;59713;50.866;4.324;2023-04-25T01:40:46;6;5;
71858;PMS5003;59713;50.866;4.324;2023-04-25T01:40:46;6;5;
71858;PMS5003;59713;50.866;4.324;2023-04-25T01:41:46;6;5;
71858;PMS5003;59713;50.866;4.324;2023-04-25T01:42:46;6;5;
71858;PMS5003;59713;50.866;4.324;2023-04-25T01:43:46;6;6;
71858;PMS5003;59713;50.866;4.324;2023-04-25T01:44:46;6;6;
71858;PMS5003;59713;50.866;4.324;2023-04-25T01:45:46;6;6;
71858;PMS5003;59713;50.866;4.324;2023-04-25T01:46:46;8;5;
71858;PMS5003;59713;50.866;4.324;2023-04-25T01:47:46;8;5;
71858;PMS5003;59713;50.866;4.324;2023-04-25T01:48:46;8;5;
71858;PMS5003;59713;50.866;4.324;2023-04-25T01:49:46;4;4;
71858;PMS5003;59713;50.866;4.324;2023-04-25T01:49:46;4;4;
71858;PMS5003;59713;50.866;4.324;2023-04-25T01:50:47;4;4;
71858;PMS5003;59713;50.866;4.324;2023-04-25T01:51:46;4;4;
71858;PMS5003;59713;50.866;4.324;2023-04-25T01:52:46;8;7;
71858;PMS5003;59713;50.866;4.324;2023-04-25T01:53:46;8;7;
71858;PMS5003;59713;50.866;4.324;2023-04-25T01:54:46;8;7;
71858;PMS5003;59713;50.866;4.324;2023-04-25T01:55:46;11;6;
71858;PMS5003;59713;50.866;4.324;2023-04-25T01:56:49;11;6;
71858;PMS5003;59713;50.866;4.324;2023-04-25T01:57:46;11;6;
71858;PMS5003;59713;50.866;4.324;2023-04-25T01:58:46;8;7;
71858;PMS5003;59713;50.866;4.324;2023-04-25T01:58:46;8;7;
71858;PMS5003;59713;50.866;4.324;2023-04-25T01:59:46;8;7;
71858;PMS5003;59713;50.866;4.324;2023-04-25T02:00:46;8;7;
71858;PMS5003;59713;50.866;4.324;2023-04-25T02:01:46;12;6;
71858;PMS5003;59713;50.866;4.324;2023-04-25T02:02:46;12;6;
71858;PMS5003;59713;50.866;4.324;2023-04-25T02:03:46;12;6;
71858;PMS5003;59713;50.866;4.324;2023-04-25T02:04:46;7;5;
71858;PMS5003;59713;50.866;4.324;2023-04-25T02:05:46;7;5;
71858;PMS5003;59713;50.866;4.324;2023-04-25T02:06:46;7;5;
71858;PMS5003;59713;50.866;4.324;2023-04-25T02:07:46;5;4;
71858;PMS5003;59713;50.866;4.324;2023-04-25T02:07:47;5;4;
71858;PMS5003;59713;50.866;4.324;2023-04-25T02:08:46;5;4;
71858;PMS5003;59713;50.866;4.324;2023-04-25T02:09:46;5;4;
71858;PMS5003;59713;50.866;4.324;2023-04-25T02:10:46;6;6;
71858;PMS5003;59713;50.866;4.324;2023-04-25T02:11:46;6;6;
71858;PMS5003;59713;50.866;4.324;2023-04-25T02:12:46;6;6;
71858;PMS5003;59713;50.866;4.324;2023-04-25T02:13:46;8;6;
71858;PMS5003;59713;50.866;4.324;2023-04-25T02:14:46;8;6;
71858;PMS5003;59713;50.866;4.324;2023-04-25T02:15:46;8;6;
71858;PMS5003;59713;50.866;4.324;2023-04-25T02:16:46;7;4;
71858;PMS5003;59713;50.866;4.324;2023-04-25T02:16:46;7;4;
71858;PMS5003;59713;50.866;4.324;2023-04-25T02:17:46;7;4;
71858;PMS5003;59713;50.866;4.324;2023-04-25T02:18:46;7;4;
71858;PMS5003;59713;50.866;4.324;2023-04-25T02:19:46;7;5;
71858;PMS5003;59713;50.866;4.324;2023-04-25T02:20:46;7;5;
71858;PMS5003;59713;50.866;4.324;2023-04-25T02:21:46;7;5;
71858;PMS5003;59713;50.866;4.324;2023-04-25T02:22:46;11;6;
71858;PMS5003;59713;50.866;4.324;2023-04-25T02:23:46;11;6;
71858;PMS5003;59713;50.866;4.324;2023-04-25T02:24:46;11;6;
71858;PMS5003;59713;50.866;4.324;2023-04-25T02:25:46;6;4;
71858;PMS5003;59713;50.866;4.324;2023-04-25T02:25:46;6;4;
71858;PMS5003;59713;50.866;4.324;2023-04-25T02:26:46;6;4;
71858;PMS5003;59713;50.866;4.324;2023-04-25T02:27:46;6;4;
71858;PMS5003;59713;50.866;4.324;2023-04-25T02:28:46;10;6;
71858;PMS5003;59713;50.866;4.324;2023-04-25T02:29:46;10;6;
71858;PMS5003;59713;50.866;4.324;2023-04-25T02:30:46;10;6;
71858;PMS5003;59713;50.866;4.324;2023-04-25T02:31:46;10;8;
71858;PMS5003;59713;50.866;4.324;2023-04-25T02:32:46;10;8;
71858;PMS5003;59713;50.866;4.324;2023-04-25T02:33:47;10;8;
71858;PMS5003;59713;50.866;4.324;2023-04-25T02:34:46;9;5;
71858;PMS5003;59713;50.866;4.324;2023-04-25T02:34:46;9;5;
71858;PMS5003;59713;50.866;4.324;2023-04-25T02:35:46;9;5;
71858;PMS5003;59713;50.866;4.324;2023-04-25T02:36:47;9;5;
71858;PMS5003;59713;50.866;4.324;2023-04-25T02:37:46;6;6;
71858;PMS5003;59713;50.866;4.324;2023-04-25T02:38:46;6;6;
71858;PMS5003;59713;50.866;4.324;2023-04-25T02:39:46;6;6;
71858;PMS5003;59713;50.866;4.324;2023-04-25T02:40:46;9;6;
71858;PMS5003;59713;50.866;4.324;2023-04-25T02:41:46;9;6;
71858;PMS5003;59713;50.866;4.324;2023-04-25T02:42:46;9;6;
71858;PMS5003;59713;50.866;4.324;2023-04-25T02:43:46;6;6;
71858;PMS5003;59713;50.866;4.324;2023-04-25T02:43:46;6;6;
71858;PMS5003;59713;50.866;4.324;2023-04-25T02:44:46;6;6;
71858;PMS5003;59713;50.866;4.324;2023-04-25T02:45:46;6;6;
71858;PMS5003;59713;50.866;4.324;2023-04-25T02:46:46;7;4;
71858;PMS5003;59713;50.866;4.324;2023-04-25T02:47:46;7;4;
71858;PMS5003;59713;50.866;4.324;2023-04-25T02:48:46;7;4;
71858;PMS5003;59713;50.866;4.324;2023-04-25T02:49:46;6;5;
71858;PMS5003;59713;50.866;4.324;2023-04-25T02:50:46;6;5;
71858;PMS5003;59713;50.866;4.324;2023-04-25T02:51:46;6;5;
71858;PMS5003;59713;50.866;4.324;2023-04-25T02:52:46;7;7;
71858;PMS5003;59713;50.866;4.324;2023-04-25T02:52:46;7;7;
71858;PMS5003;59713;50.866;4.324;2023-04-25T02:53:46;7;7;
71858;PMS5003;59713;50.866;4.324;2023-04-25T02:54:46;7;7;
71858;PMS5003;59713;50.866;4.324;2023-04-25T02:55:46;6;4;
71858;PMS5003;59713;50.866;4.324;2023-04-25T02:56:46;6;4;
71858;PMS5003;59713;50.866;4.324;2023-04-25T02:57:46;6;4;
71858;PMS5003;59713;50.866;4.324;2023-04-25T02:58:46;12;6;
71858;PMS5003;59713;50.866;4.324;2023-04-25T02:59:46;12;6;
71858;PMS5003;59713;50.866;4.324;2023-04-25T03:00:46;12;6;
71858;PMS5003;59713;50.866;4.324;2023-04-25T03:01:46;9;5;
71858;PMS5003;59713;50.866;4.324;2023-04-25T03:01:46;9;5;
71858;PMS5003;59713;50.866;4.324;2023-04-25T03:02:46;9;5;
71858;PMS5003;59713;50.866;4.324;2023-04-25T03:03:46;9;5;
71858;PMS5003;59713;50.866;4.324;2023-04-25T03:04:46;6;4;
71858;PMS5003;59713;50.866;4.324;2023-04-25T03:05:46;6;4;
71858;PMS5003;59713;50.866;4.324;2023-04-25T03:06:46;6;4;
71858;PMS5003;59713;50.866;4.324;2023-04-25T03:07:46;9;5;
71858;PMS5003;59713;50.866;4.324;2023-04-25T03:08:47;9;5;
71858;PMS5003;59713;50.866;4.324;2023-04-25T03:09:46;9;5;
71858;PMS5003;59713;50.866;4.324;2023-04-25T03:10:46;7;5;
71858;PMS5003;59713;50.866;4.324;2023-04-25T03:11:46;7;5;
71858;PMS5003;59713;50.866;4.324;2023-04-25T03:11:46;7;5;
71858;PMS5003;59713;50.866;4.324;2023-04-25T03:12:46;7;5;
71858;PMS5003;59713;50.866;4.324;2023-04-25T03:13:46;10;7;
71858;PMS5003;59713;50.866;4.324;2023-04-25T03:14:46;10;7;
71858;PMS5003;59713;50.866;4.324;2023-04-25T03:15:46;10;7;
71858;PMS5003;59713;50.866;4.324;2023-04-25T03:16:46;7;5;
71858;PMS5003;59713;50.866;4.324;2023-04-25T03:17:46;7;5;
71858;PMS5003;59713;50.866;4.324;2023-04-25T03:18:46;7;5;
71858;PMS5003;59713;50.866;4.324;2023-04-25T03:19:46;10;5;
71858;PMS5003;59713;50.866;4.324;2023-04-25T03:20:46;10;5;
71858;PMS5003;59713;50.866;4.324;2023-04-25T03:20:46;10;5;
71858;PMS5003;59713;50.866;4.324;2023-04-25T03:21:46;10;5;
71858;PMS5003;59713;50.866;4.324;2023-04-25T03:22:46;12;8;
71858;PMS5003;59713;50.866;4.324;2023-04-25T03:23:46;12;8;
71858;PMS5003;59713;50.866;4.324;2023-04-25T03:24:46;12;8;
71858;PMS5003;59713;50.866;4.324;2023-04-25T03:25:46;6;4;
71858;PMS5003;59713;50.866;4.324;2023-04-25T03:26:46;6;4;
71858;PMS5003;59713;50.866;4.324;2023-04-25T03:27:46;6;4;
71858;PMS5003;59713;50.866;4.324;2023-04-25T03:28:46;4;4;
71858;PMS5003;59713;50.866;4.324;2023-04-25T03:29:46;4;4;
71858;PMS5003;59713;50.866;4.324;2023-04-25T03:29:46;4;4;
71858;PMS5003;59713;50.866;4.324;2023-04-25T03:30:46;4;4;
71858;PMS5003;59713;50.866;4.324;2023-04-25T03:31:48;10;8;
71858;PMS5003;59713;50.866;4.324;2023-04-25T03:32:46;10;8;
71858;PMS5003;59713;50.866;4.324;2023-04-25T03:33:46;10;8;
71858;PMS5003;59713;50.866;4.324;2023-04-25T03:34:46;9;6;
71858;PMS5003;59713;50.866;4.324;2023-04-25T03:35:46;9;6;
71858;PMS5003;59713;50.866;4.324;2023-04-25T03:36:46;9;6;
71858;PMS5003;59713;50.866;4.324;2023-04-25T03:37:46;9;6;
71858;PMS5003;59713;50.866;4.324;2023-04-25T03:38:46;9;6;
71858;PMS5003;59713;50.866;4.324;2023-04-25T03:39:46;9;6;
71858;PMS5003;59713;50.866;4.324;2023-04-25T03:39:46;9;6;
71858;PMS5003;59713;50.866;4.324;2023-04-25T03:40:46;6;3;
71858;PMS5003;59713;50.866;4.324;2023-04-25T03:41:46;6;3;
71858;PMS5003;59713;50.866;4.324;2023-04-25T03:42:46;6;3;
71858;PMS5003;59713;50.866;4.324;2023-04-25T03:43:46;5;4;
71858;PMS5003;59713;50.866;4.324;2023-04-25T03:44:46;5;4;
71858;PMS5003;59713;50.866;4.324;2023-04-25T03:45:46;5;4;
71858;PMS5003;59713;50.866;4.324;2023-04-25T03:46:46;7;6;
71858;PMS5003;59713;50.866;4.324;2023-04-25T03:47:46;7;6;
71858;PMS5003;59713;50.866;4.324;2023-04-25T03:48:46;7;6;
71858;PMS5003;59713;50.866;4.324;2023-04-25T03:48:46;7;6;
71858;PMS5003;59713;50.866;4.324;2023-04-25T03:49:46;7;6;
71858;PMS5003;59713;50.866;4.324;2023-04-25T03:50:46;7;6;
71858;PMS5003;59713;50.866;4.324;2023-04-25T03:51:46;7;6;
71858;PMS5003;59713;50.866;4.324;2023-04-25T03:52:46;5;5;
71858;PMS5003;59713;50.866;4.324;2023-04-25T03:53:47;5;5;
71858;PMS5003;59713;50.866;4.324;2023-04-25T03:54:46;5;5;
71858;PMS5003;59713;50.866;4.324;2023-04-25T03:55:46;8;7;
71858;PMS5003;59713;50.866;4.324;2023-04-25T03:56:46;8;7;
71858;PMS5003;59713;50.866;4.324;2023-04-25T03:57:46;8;7;
71858;PMS5003;59713;50.866;4.324;2023-04-25T03:57:46;8;7;
71858;PMS5003;59713;50.866;4.324;2023-04-25T03:58:46;6;4;
71858;PMS5003;59713;50.866;4.324;2023-04-25T03:59:46;6;4;
71858;PMS5003;59713;50.866;4.324;2023-04-25T04:00:46;6;4;
71858;PMS5003;59713;50.866;4.324;2023-04-25T04:01:46;9;3;
71858;PMS5003;59713;50.866;4.324;2023-04-25T04:02:46;9;3;
71858;PMS5003;59713;50.866;4.324;2023-04-25T04:03:46;9;3;
71858;PMS5003;59713;50.866;4.324;2023-04-25T04:04:46;8;5;
71858;PMS5003;59713;50.866;4.324;2023-04-25T04:05:46;8;5;
71858;PMS5003;59713;50.866;4.324;2023-04-25T04:06:46;8;5;
71858;PMS5003;59713;50.866;4.324;2023-04-25T04:07:46;10;6;
71858;PMS5003;59713;50.866;4.324;2023-04-25T04:07:46;10;6;
71858;PMS5003;59713;50.866;4.324;2023-04-25T04:08:46;10;6;
71858;PMS5003;59713;50.866;4.324;2023-04-25T04:09:46;10;6;
71858;PMS5003;59713;50.866;4.324;2023-04-25T04:10:46;6;4;
71858;PMS5003;59713;50.866;4.324;2023-04-25T04:11:47;6;4;
71858;PMS5003;59713;50.866;4.324;2023-04-25T04:12:46;6;4;
71858;PMS5003;59713;50.866;4.324;2023-04-25T04:13:46;7;6;
71858;PMS5003;59713;50.866;4.324;2023-04-25T04:14:46;7;6;
71858;PMS5003;59713;50.866;4.324;2023-04-25T04:15:46;7;6;
71858;PMS5003;59713;50.866;4.324;2023-04-25T04:16:46;7;6;
71858;PMS5003;59713;50.866;4.324;2023-04-25T04:17:47;7;6;
71858;PMS5003;59713;50.866;4.324;2023-04-25T04:18:46;7;6;
71858;PMS5003;59713;50.866;4.324;2023-04-25T04:19:46;11;7;
71858;PMS5003;59713;50.866;4.324;2023-04-25T04:20:46;11;7;
71858;PMS5003;59713;50.866;4.324;2023-04-25T04:21:46;11;7;
71858;PMS5003;59713;50.866;4.324;2023-04-25T04:22:46;12;7;
71858;PMS5003;59713;50.866;4.324;2023-04-25T04:23:46;12;7;
71858;PMS5003;59713;50.866;4.324;2023-04-25T04:24:46;12;7;
71858;PMS5003;59713;50.866;4.324;2023-04-25T04:25:47;6;5;
71858;PMS5003;59713;50.866;4.324;2023-04-25T04:25:47;6;5;
71858;PMS5003;59713;50.866;4.324;2023-04-25T04:26:46;6;5;
71858;PMS5003;59713;50.866;4.324;2023-04-25T04:27:46;6;5;
71858;PMS5003;59713;50.866;4.324;2023-04-25T04:28:46;5;3;
71858;PMS5003;59713;50.866;4.324;2023-04-25T04:29:46;5;3;
71858;PMS5003;59713;50.866;4.324;2023-04-25T04:30:46;5;3;
71858;PMS5003;59713;50.866;4.324;2023-04-25T04:31:47;6;5;
71858;PMS5003;59713;50.866;4.324;2023-04-25T04:32:46;6;5;
71858;PMS5003;59713;50.866;4.324;2023-04-25T04:33:46;6;5;
71858;PMS5003;59713;50.866;4.324;2023-04-25T04:34:46;4;2;
71858;PMS5003;59713;50.866;4.324;2023-04-25T04:34:46;4;2;
71858;PMS5003;59713;50.866;4.324;2023-04-25T04:35:46;4;2;
71858;PMS5003;59713;50.866;4.324;2023-04-25T04:36:48;4;2;
71858;PMS5003;59713;50.866;4.324;2023-04-25T04:37:46;7;7;
71858;PMS5003;59713;50.866;4.324;2023-04-25T04:38:47;7;7;
71858;PMS5003;59713;50.866;4.324;2023-04-25T04:39:47;7;7;
71858;PMS5003;59713;50.866;4.324;2023-04-25T04:40:46;7;4;
71858;PMS5003;59713;50.866;4.324;2023-04-25T04:41:46;7;4;
71858;PMS5003;59713;50.866;4.324;2023-04-25T04:42:47;7;4;
71858;PMS5003;59713;50.866;4.324;2023-04-25T04:43:46;8;6;
71858;PMS5003;59713;50.866;4.324;2023-04-25T04:43:46;8;6;
71858;PMS5003;59713;50.866;4.324;2023-04-25T04:44:46;8;6;
71858;PMS5003;59713;50.866;4.324;2023-04-25T04:45:46;8;6;
71858;PMS5003;59713;50.866;4.324;2023-04-25T04:46:46;5;4;
71858;PMS5003;59713;50.866;4.324;2023-04-25T04:47:46;5;4;
71858;PMS5003;59713;50.866;4.324;2023-04-25T04:48:47;5;4;
71858;PMS5003;59713;50.866;4.324;2023-04-25T04:49:46;8;4;
71858;PMS5003;59713;50.866;4.324;2023-04-25T04:50:47;8;4;
71858;PMS5003;59713;50.866;4.324;2023-04-25T04:51:46;8;4;
71858;PMS5003;59713;50.866;4.324;2023-04-25T04:52:46;11;9;
71858;PMS5003;59713;50.866;4.324;2023-04-25T04:53:46;11;9;
71858;PMS5003;59713;50.866;4.324;2023-04-25T04:53:46;11;9;
71858;PMS5003;59713;50.866;4.324;2023-04-25T04:54:46;11;9;
71858;PMS5003;59713;50.866;4.324;2023-04-25T04:55:46;5;5;
71858;PMS5003;59713;50.866;4.324;2023-04-25T04:56:46;5;5;
71858;PMS5003;59713;50.866;4.324;2023-04-25T04:57:46;5;5;
71858;PMS5003;59713;50.866;4.324;2023-04-25T04:58:46;10;7;
71858;PMS5003;59713;50.866;4.324;2023-04-25T04:59:46;10;7;
71858;PMS5003;59713;50.866;4.324;2023-04-25T05:00:47;10;7;
71858;PMS5003;59713;50.866;4.324;2023-04-25T05:01:46;6;5;
71858;PMS5003;59713;50.866;4.324;2023-04-25T05:02:46;6;5;
71858;PMS5003;59713;50.866;4.324;2023-04-25T05:02:47;6;5;
71858;PMS5003;59713;50.866;4.324;2023-04-25T05:03:46;6;5;
71858;PMS5003;59713;50.866;4.324;2023-04-25T05:04:48;8;7;
71858;PMS5003;59713;50.866;4.324;2023-04-25T05:05:46;8;7;
71858;PMS5003;59713;50.866;4.324;2023-04-25T05:06:47;8;7;
71858;PMS5003;59713;50.866;4.324;2023-04-25T05:07:46;7;6;
71858;PMS5003;59713;50.866;4.324;2023-04-25T05:08:46;7;6;
71858;PMS5003;59713;50.866;4.324;2023-04-25T05:09:46;7;6;
71858;PMS5003;59713;50.866;4.324;2023-04-25T05:10:47;9;8;
71858;PMS5003;59713;50.866;4.324;2023-04-25T05:11:47;9;8;
71858;PMS5003;59713;50.866;4.324;2023-04-25T05:11:47;9;8;
71858;PMS5003;59713;50.866;4.324;2023-04-25T05:12:46;9;8;
71858;PMS5003;59713;50.866;4.324;2023-04-25T05:13:48;5;5;
71858;PMS5003;59713;50.866;4.324;2023-04-25T05:14:48;5;5;
71858;PMS5003;59713;50.866;4.324;2023-04-25T05:15:47;5;5;
71858;PMS5003;59713;50.866;4.324;2023-04-25T05:16:46;8;6;
71858;PMS5003;59713;50.866;4.324;2023-04-25T05:17:46;8;6;
71858;PMS5003;59713;50.866;4.324;2023-04-25T05:18:47;8;6;
71858;PMS5003;59713;50.866;4.324;2023-04-25T05:19:47;5;4;
71858;PMS5003;59713;50.866;4.324;2023-04-25T05:20:47;5;4;
71858;PMS5003;59713;50.866;4.324;2023-04-25T05:20:47;5;4;
71858;PMS5003;59713;50.866;4.324;2023-04-25T05:21:48;5;4;
71858;PMS5003;59713;50.866;4.324;2023-04-25T05:22:47;8;4;
71858;PMS5003;59713;50.866;4.324;2023-04-25T05:23:47;8;4;
71858;PMS5003;59713;50.866;4.324;2023-04-25T05:24:47;8;4;
71858;PMS5003;59713;50.866;4.324;2023-04-25T05:25:48;6;4;
71858;PMS5003;59713;50.866;4.324;2023-04-25T05:26:47;6;4;
71858;PMS5003;59713;50.866;4.324;2023-04-25T05:27:47;6;4;
71858;PMS5003;59713;50.866;4.324;2023-04-25T05:28:47;6;6;
71858;PMS5003;59713;50.866;4.324;2023-04-25T05:29:47;6;6;
71858;PMS5003;59713;50.866;4.324;2023-04-25T05:29:47;6;6;
71858;PMS5003;59713;50.866;4.324;2023-04-25T05:30:47;6;6;
71858;PMS5003;59713;50.866;4.324;2023-04-25T05:31:47;10;7;
71858;PMS5003;59713;50.866;4.324;2023-04-25T05:32:47;10;7;
71858;PMS5003;59713;50.866;4.324;2023-04-25T05:33:47;10;7;
71858;PMS5003;59713;50.866;4.324;2023-04-25T05:34:47;7;7;
71858;PMS5003;59713;50.866;4.324;2023-04-25T05:35:47;7;7;
71858;PMS5003;59713;50.866;4.324;2023-04-25T05:36:48;7;7;
71858;PMS5003;59713;50.866;4.324;2023-04-25T05:37:47;9;7;
71858;PMS5003;59713;50.866;4.324;2023-04-25T05:38:47;9;7;
71858;PMS5003;59713;50.866;4.324;2023-04-25T05:38:47;9;7;
71858;PMS5003;59713;50.866;4.324;2023-04-25T05:39:47;9;7;
71858;PMS5003;59713;50.866;4.324;2023-04-25T05:40:47;12;9;
71858;PMS5003;59713;50.866;4.324;2023-04-25T05:41:47;12;9;
71858;PMS5003;59713;50.866;4.324;2023-04-25T05:42:47;12;9;
71858;PMS5003;59713;50.866;4.324;2023-04-25T05:43:47;8;6;
71858;PMS5003;59713;50.866;4.324;2023-04-25T05:44:47;8;6;
71858;PMS5003;59713;50.866;4.324;2023-04-25T05:45:47;8;6;
71858;PMS5003;59713;50.866;4.324;2023-04-25T05:46:47;13;7;
71858;PMS5003;59713;50.866;4.324;2023-04-25T05:47:48;13;7;
71858;PMS5003;59713;50.866;4.324;2023-04-25T05:47:48;13;7;
71858;PMS5003;59713;50.866;4.324;2023-04-25T05:48:47;13;7;
71858;PMS5003;59713;50.866;4.324;2023-04-25T05:49:47;8;6;
71858;PMS5003;59713;50.866;4.324;2023-04-25T05:50:47;8;6;
71858;PMS5003;59713;50.866;4.324;2023-04-25T05:51:47;8;6;
71858;PMS5003;59713;50.866;4.324;2023-04-25T05:52:47;11;7;
71858;PMS5003;59713;50.866;4.324;2023-04-25T05:53:47;11;7;
71858;PMS5003;59713;50.866;4.324;2023-04-25T05:54:46;11;7;
71858;PMS5003;59713;50.866;4.324;2023-04-25T05:55:47;11;8;
71858;PMS5003;59713;50.866;4.324;2023-04-25T05:56:47;11;8;
71858;PMS5003;59713;50.866;4.324;2023-04-25T05:57:47;11;8;
71858;PMS5003;59713;50.866;4.324;2023-04-25T05:57:47;11;8;
71858;PMS5003;59713;50.866;4.324;2023-04-25T05:58:47;8;6;
71858;PMS5003;59713;50.866;4.324;2023-04-25T05:59:47;8;6;
71858;PMS5003;59713;50.866;4.324;2023-04-25T06:00:47;8;6;
71858;PMS5003;59713;50.866;4.324;2023-04-25T06:01:47;8;6;
71858;PMS5003;59713;50.866;4.324;2023-04-25T06:02:48;8;6;
71858;PMS5003;59713;50.866;4.324;2023-04-25T06:03:47;8;6;
71858;PMS5003;59713;50.866;4.324;2023-04-25T06:04:47;9;7;
71858;PMS5003;59713;50.866;4.324;2023-04-25T06:05:47;9;7;
71858;PMS5003;59713;50.866;4.324;2023-04-25T06:06:47;9;7;
71858;PMS5003;59713;50.866;4.324;2023-04-25T06:06:47;9;7;
71858;PMS5003;59713;50.866;4.324;2023-04-25T06:07:47;7;6;
71858;PMS5003;59713;50.866;4.324;2023-04-25T06:08:47;7;6;
71858;PMS5003;59713;50.866;4.324;2023-04-25T06:09:47;7;6;
71858;PMS5003;59713;50.866;4.324;2023-04-25T06:10:47;7;5;
71858;PMS5003;59713;50.866;4.324;2023-04-25T06:11:47;7;5;